createdAt,value
2022-10-31T00:02:08.173Z,16.40
2022-10-31T00:05:18.006Z,18.30
2022-10-31T00:07:53.228Z,19.20
2022-10-31T00:10:37.991Z,20.50
2022-10-31T00:13:44.367Z,17.60
2022-10-31T00:16:32.377Z,20.10
2022-10-31T00:19:13.503Z,18.50
2022-10-31T00:22:12.763Z,20.00
2022-10-31T00:24:48.861Z,17.40
2022-10-31T00:27:28.291Z,16.90
2022-10-31T00:30:09.177Z,19.00
2022-10-31T00:33:01.873Z,17.10
2022-10-31T00:36:01.348Z,15.50
2022-10-31T00:38:36.246Z,19.30
2022-10-31T00:41:26.333Z,19.10
2022-10-31T00:44:22.725Z,18.10
2022-10-31T00:47:02.732Z,19.90
2022-10-31T00:49:40.562Z,17.60
2022-10-31T00:52:33.454Z,15.20
2022-10-31T00:55:14.696Z,19.50
2022-10-31T00:57:57.287Z,18.30
2022-10-31T01:00:40.457Z,17.90
2022-10-31T01:03:19.781Z,16.20
2022-10-31T01:06:06.183Z,17.30
2022-10-31T01:09:00.733Z,21.20
2022-10-31T01:11:41.083Z,19.70
2022-10-31T01:14:13.664Z,18.20
2022-10-31T01:16:54.523Z,17.80
2022-10-31T01:19:39.415Z,18.60
2022-10-31T01:22:40.406Z,20.40
2022-10-31T01:28:32.642Z,17.60
2022-10-31T01:31:37.318Z,19.00
2022-10-31T01:34:22.600Z,16.10
2022-10-31T01:37:27.446Z,19.70
2022-10-31T01:40:15.890Z,16.80
2022-10-31T01:43:00.997Z,16.60
2022-10-31T01:45:49.619Z,15.90
2022-10-31T01:48:38.779Z,17.30
2022-10-31T01:51:19.823Z,20.70
2022-10-31T01:54:05.269Z,17.70
2022-10-31T01:56:56.784Z,16.90
2022-10-31T01:59:50.121Z,19.50
2022-10-31T02:02:50.460Z,15.90
2022-10-31T02:06:00.234Z,20.90
2022-10-31T02:08:39.180Z,19.70
2022-10-31T02:11:37.669Z,19.30
2022-10-31T02:14:17.459Z,20.80
2022-10-31T02:16:50.018Z,22.50
2022-10-31T02:19:36.799Z,23.90
2022-10-31T02:22:15.212Z,22.50
2022-10-31T02:25:23.766Z,24.60
2022-10-31T02:28:10.253Z,24.90
2022-10-31T02:30:58.449Z,22.40
2022-10-31T02:33:59.815Z,23.60
2022-10-31T02:37:33.819Z,22.90
2022-10-31T02:40:54.368Z,23.80
2022-10-31T02:44:06.010Z,26.80
2022-10-31T02:47:18.862Z,23.30
2022-10-31T02:50:05.288Z,26.40
2022-10-31T02:52:59.237Z,23.60
2022-10-31T02:55:53.333Z,26.90
2022-10-31T02:58:39.064Z,24.40
2022-10-31T03:01:16.507Z,23.90
2022-10-31T03:04:00.944Z,25.70
2022-10-31T03:07:04.748Z,23.70
2022-10-31T03:10:19.520Z,24.50
2022-10-31T03:13:12.976Z,22.50
2022-10-31T03:16:07.991Z,24.40
2022-10-31T03:19:06.413Z,25.50
2022-10-31T03:22:08.729Z,27.10
2022-10-31T03:25:00.320Z,27.80
2022-10-31T03:27:40.303Z,24.40
2022-10-31T03:30:19.320Z,26.60
2022-10-31T03:32:59.699Z,27.70
2022-10-31T03:35:56.966Z,27.70
2022-10-31T03:38:40.086Z,28.10
2022-10-31T03:41:29.110Z,27.70
2022-10-31T03:44:12.175Z,26.90
2022-10-31T03:46:52.071Z,28.90
2022-10-31T03:49:38.542Z,30.80
2022-10-31T03:52:55.346Z,29.30
2022-10-31T03:55:38.261Z,30.20
2022-10-31T03:59:00.011Z,26.30
2022-10-31T04:01:53.886Z,29.20
2022-10-31T04:04:28.819Z,29.30
2022-10-31T04:07:37.563Z,30.40
2022-10-31T04:10:28.640Z,29.20
2022-10-31T04:13:26.123Z,27.40
2022-10-31T04:16:14.212Z,28.30
2022-10-31T04:18:56.845Z,30.40
2022-10-31T04:22:00.721Z,28.80
2022-10-31T04:25:06.198Z,28.30
2022-10-31T04:28:00.636Z,30.10
2022-10-31T04:30:32.676Z,30.30
2022-10-31T04:33:12.651Z,29.30
2022-10-31T04:35:49.161Z,32.00
2022-10-31T04:38:21.488Z,30.00
2022-10-31T04:41:02.110Z,29.70
2022-10-31T04:43:35.730Z,30.90
2022-10-31T04:46:12.110Z,31.60
2022-10-31T04:49:23.186Z,31.70
2022-10-31T04:51:57.490Z,29.20
2022-10-31T04:54:28.744Z,31.60
2022-10-31T04:57:20.956Z,29.90
2022-10-31T05:00:12.392Z,30.90
2022-10-31T05:02:50.986Z,32.30
2022-10-31T05:05:35.754Z,31.00
2022-10-31T05:08:40.913Z,28.90
2022-10-31T05:11:15.421Z,28.70
2022-10-31T05:14:01.622Z,33.20
2022-10-31T05:16:35.633Z,31.60
2022-10-31T05:19:12.719Z,31.30
2022-10-31T05:21:43.701Z,31.70
2022-10-31T05:24:22.999Z,29.40
2022-10-31T05:27:09.495Z,32.80
2022-10-31T05:29:52.517Z,31.20
2022-10-31T05:32:40.504Z,29.90
2022-10-31T05:35:33.672Z,30.50
2022-10-31T05:38:37.154Z,31.40
2022-10-31T05:41:12.532Z,31.60
2022-10-31T05:43:55.158Z,33.70
2022-10-31T05:49:18.923Z,28.50
2022-10-31T05:52:08.445Z,32.60
2022-10-31T05:54:42.806Z,27.90
2022-10-31T05:57:20.982Z,30.80
2022-10-31T06:00:00.814Z,29.30
2022-10-31T06:02:57.157Z,27.80
2022-10-31T06:05:40.531Z,28.70
2022-10-31T06:08:29.096Z,32.30
2022-10-31T06:11:16.424Z,30.50
2022-10-31T06:14:52.577Z,30.00
2022-10-31T06:17:42.123Z,32.40
2022-10-31T06:20:44.613Z,37.30
2022-10-31T06:23:24.897Z,46.50
2022-10-31T06:26:05.551Z,42.80
2022-10-31T06:29:04.289Z,47.10
2022-10-31T06:31:38.610Z,42.40
2022-10-31T06:34:47.995Z,44.70
2022-10-31T06:37:19.957Z,44.60
2022-10-31T06:39:58.156Z,43.00
2022-10-31T06:42:28.827Z,41.40
2022-10-31T06:45:19.200Z,42.30
2022-10-31T06:51:12.052Z,45.60
2022-10-31T06:53:55.303Z,42.30
2022-10-31T06:57:00.567Z,36.70
2022-10-31T06:59:32.761Z,44.20
2022-10-31T07:02:27.498Z,40.80
2022-10-31T07:05:17.565Z,28.70
2022-10-31T07:08:07.854Z,26.30
2022-10-31T07:10:53.868Z,28.40
2022-10-31T07:13:34.237Z,29.30
2022-10-31T07:18:53.487Z,29.30
2022-10-31T07:21:22.953Z,25.30
2022-10-31T07:23:58.956Z,28.60
2022-10-31T07:26:47.979Z,26.00
2022-10-31T07:29:31.032Z,26.20
2022-10-31T07:32:23.851Z,26.40
2022-10-31T07:35:06.986Z,25.40
2022-10-31T07:37:52.059Z,23.80
2022-10-31T07:40:27.950Z,25.60
2022-10-31T07:43:08.895Z,24.20
2022-10-31T07:46:15.707Z,25.60
2022-10-31T07:49:01.638Z,25.20
2022-10-31T07:51:54.453Z,21.70
2022-10-31T07:54:42.604Z,27.40
2022-10-31T07:57:34.450Z,24.20
2022-10-31T08:00:13.335Z,31.30
2022-10-31T08:03:08.296Z,30.60
2022-10-31T08:05:41.301Z,28.50
2022-10-31T08:08:38.419Z,31.40
2022-10-31T08:11:21.144Z,32.10
2022-10-31T08:13:50.180Z,29.90
2022-10-31T08:16:28.801Z,29.20
2022-10-31T08:19:00.036Z,29.10
2022-10-31T08:21:38.351Z,28.70
2022-10-31T08:24:07.772Z,30.50
2022-10-31T08:26:51.234Z,29.60
2022-10-31T08:29:40.227Z,28.00
2022-10-31T08:32:16.386Z,25.50
2022-10-31T08:34:59.466Z,24.90
2022-10-31T08:37:30.980Z,26.40
2022-10-31T08:40:12.569Z,26.40
2022-10-31T08:42:50.047Z,24.30
2022-10-31T08:45:45.503Z,24.80
2022-10-31T08:48:26.282Z,28.50
2022-10-31T08:53:42.144Z,27.10
2022-10-31T08:56:23.622Z,27.90
2022-10-31T08:58:57.964Z,26.50
2022-10-31T09:01:53.441Z,28.40
2022-10-31T09:04:32.527Z,26.00
2022-10-31T09:07:20.210Z,25.40
2022-10-31T09:09:57.938Z,27.20
2022-10-31T09:12:33.160Z,25.90
2022-10-31T09:15:05.139Z,24.70
2022-10-31T09:17:33.826Z,29.10
2022-10-31T09:20:02.259Z,30.60
2022-10-31T09:22:30.800Z,25.10
2022-10-31T09:25:04.354Z,26.60
2022-10-31T09:27:59.971Z,30.30
2022-10-31T09:30:47.000Z,29.10
2022-10-31T09:33:20.591Z,31.80
2022-10-31T09:36:00.739Z,29.40
2022-10-31T09:38:29.209Z,28.70
2022-10-31T09:41:15.346Z,31.00
2022-10-31T09:44:10.286Z,30.30
2022-10-31T09:46:47.469Z,30.40
2022-10-31T09:49:37.034Z,31.00
2022-10-31T09:52:35.687Z,31.40
2022-10-31T09:55:45.886Z,31.20
2022-10-31T09:58:22.893Z,34.20
2022-10-31T10:00:53.855Z,29.70
2022-10-31T10:03:41.381Z,32.20
2022-10-31T10:06:35.140Z,29.20
2022-10-31T10:09:04.648Z,26.50
2022-10-31T10:11:43.010Z,29.00
2022-10-31T10:14:21.275Z,26.90
2022-10-31T10:17:16.076Z,26.70
2022-10-31T10:19:57.146Z,22.70
2022-10-31T10:22:41.207Z,25.60
2022-10-31T10:25:21.565Z,25.10
2022-10-31T10:28:25.616Z,29.20
2022-10-31T10:31:36.972Z,25.90
2022-10-31T10:34:36.320Z,23.30
2022-10-31T10:37:21.934Z,23.10
2022-10-31T10:40:22.883Z,22.70
2022-10-31T10:44:21.423Z,25.00
2022-10-31T10:47:19.412Z,21.80
2022-10-31T10:50:52.842Z,21.90
2022-10-31T10:54:07.854Z,22.30
2022-10-31T10:57:05.959Z,23.20
2022-10-31T10:59:40.298Z,22.00
2022-10-31T11:02:33.659Z,21.00
2022-10-31T11:05:28.628Z,22.20
2022-10-31T11:08:30.808Z,22.20
2022-10-31T11:11:27.770Z,27.00
2022-10-31T11:14:24.103Z,24.80
2022-10-31T11:17:31.311Z,26.20
2022-10-31T11:20:57.358Z,23.40
2022-10-31T11:23:31.103Z,25.50
2022-10-31T11:26:07.824Z,24.80
2022-10-31T11:28:41.213Z,26.00
2022-10-31T11:31:51.822Z,23.30
2022-10-31T11:35:30.617Z,24.80
2022-10-31T11:38:11.830Z,24.60
2022-10-31T11:44:18.230Z,23.00
2022-10-31T11:47:15.795Z,24.50
2022-10-31T11:50:08.736Z,21.80
2022-10-31T11:52:49.759Z,20.80
2022-10-31T11:55:44.867Z,24.30
2022-10-31T11:58:26.843Z,21.50
2022-10-31T12:01:28.576Z,22.90
2022-10-31T12:04:25.333Z,26.20
2022-10-31T12:07:21.147Z,23.40
2022-10-31T12:10:15.867Z,22.20
2022-10-31T12:13:23.157Z,24.00
2022-10-31T12:16:21.820Z,23.70
2022-10-31T12:19:22.248Z,23.30
2022-10-31T12:22:06.909Z,21.70
2022-10-31T12:25:05.290Z,19.60
2022-10-31T12:27:57.771Z,24.50
2022-10-31T12:31:49.551Z,21.00
2022-10-31T12:35:17.473Z,23.20
2022-10-31T12:38:45.698Z,22.00
2022-10-31T12:41:34.620Z,19.80
2022-10-31T12:48:03.131Z,22.00
2022-10-31T12:51:00.960Z,18.80
2022-10-31T12:53:42.617Z,20.70
2022-10-31T12:56:43.408Z,17.40
2022-10-31T12:59:32.061Z,19.30
2022-10-31T13:02:35.026Z,20.10
2022-10-31T13:05:51.334Z,20.30
2022-10-31T13:08:54.646Z,19.50
2022-10-31T13:11:37.415Z,17.90
2022-10-31T13:14:29.212Z,19.70
2022-10-31T13:17:01.218Z,26.50
2022-10-31T13:19:43.866Z,23.00
2022-10-31T13:22:41.081Z,27.80
2022-10-31T13:25:24.666Z,26.60
2022-10-31T13:28:28.551Z,28.10
2022-10-31T13:31:06.797Z,28.80
2022-10-31T13:34:14.882Z,30.60
2022-10-31T13:37:02.566Z,32.70
2022-10-31T13:40:01.685Z,28.20
2022-10-31T13:42:55.893Z,30.60
2022-10-31T13:45:32.016Z,30.00
2022-10-31T13:48:29.421Z,28.20
2022-10-31T13:51:06.010Z,32.30
2022-10-31T13:53:44.566Z,27.90
2022-10-31T13:56:24.149Z,32.80
2022-10-31T13:59:21.729Z,31.90
2022-10-31T14:02:18.869Z,32.60
2022-10-31T14:05:18.053Z,30.90
2022-10-31T14:08:00.138Z,31.70
2022-10-31T14:10:55.227Z,33.10
2022-10-31T14:13:36.684Z,31.70
2022-10-31T14:16:20.707Z,28.70
2022-10-31T14:19:06.023Z,31.10
2022-10-31T14:22:15.206Z,30.30
2022-10-31T14:24:53.836Z,29.70
2022-10-31T14:27:44.967Z,26.90
2022-10-31T14:30:35.134Z,28.60
2022-10-31T14:33:21.014Z,30.00
2022-10-31T14:36:05.258Z,29.30
2022-10-31T14:38:59.455Z,29.50
2022-10-31T14:42:28.375Z,34.10
2022-10-31T14:45:23.491Z,35.60
2022-10-31T14:48:25.985Z,36.70
2022-10-31T14:51:10.596Z,37.20
2022-10-31T14:53:57.293Z,34.30
2022-10-31T14:56:45.229Z,36.10
2022-10-31T15:00:03.805Z,40.70
2022-10-31T15:02:49.322Z,36.80
2022-10-31T15:05:26.301Z,41.90
2022-10-31T15:08:02.562Z,40.40
2022-10-31T15:10:53.741Z,38.60
2022-10-31T15:16:25.724Z,41.20
2022-10-31T15:19:14.288Z,40.90
2022-10-31T15:21:58.566Z,43.00
2022-10-31T15:24:47.586Z,44.40
2022-10-31T15:27:42.199Z,42.10
2022-10-31T15:31:04.840Z,39.80
2022-10-31T15:33:59.057Z,43.10
2022-10-31T15:36:43.612Z,47.00
2022-10-31T15:39:32.656Z,48.30
2022-10-31T15:42:31.467Z,44.00
2022-10-31T15:48:38.953Z,46.00
2022-10-31T15:51:43.574Z,48.50
2022-10-31T15:54:31.045Z,44.90
2022-10-31T15:57:25.736Z,53.70
2022-10-31T16:00:54.476Z,47.70
2022-10-31T16:03:39.609Z,49.00
2022-10-31T16:06:30.006Z,51.60
2022-10-31T16:09:46.086Z,45.90
2022-10-31T16:12:47.038Z,50.00
2022-10-31T16:15:24.757Z,44.40
2022-10-31T16:18:12.523Z,48.20
2022-10-31T16:21:04.998Z,48.90
2022-10-31T16:23:56.515Z,47.80
2022-10-31T16:27:00.364Z,48.40
2022-10-31T16:29:56.367Z,50.30
2022-10-31T16:32:38.362Z,51.00
2022-10-31T16:35:11.905Z,53.50
2022-10-31T16:37:42.242Z,56.80
2022-10-31T16:43:00.768Z,63.20
2022-10-31T16:45:45.292Z,54.60
2022-10-31T16:48:25.978Z,52.10
2022-10-31T16:51:23.123Z,61.10
2022-10-31T16:53:55.681Z,60.50
2022-10-31T16:59:55.501Z,61.10
2022-10-31T17:02:33.074Z,60.30
2022-10-31T17:05:17.498Z,59.60
2022-10-31T17:07:47.716Z,58.50
2022-10-31T17:10:35.194Z,58.90
2022-10-31T17:13:18.375Z,69.10
2022-10-31T17:15:51.972Z,64.90
2022-10-31T17:18:27.158Z,65.00
2022-10-31T17:21:25.744Z,59.20
2022-10-31T17:24:01.082Z,66.00
2022-10-31T17:26:30.588Z,63.70
2022-10-31T17:29:02.275Z,62.00
2022-10-31T17:31:53.513Z,61.00
2022-10-31T17:34:36.989Z,55.20
2022-10-31T17:37:21.733Z,58.60
2022-10-31T17:39:58.227Z,61.70
2022-10-31T17:42:30.604Z,64.20
2022-10-31T17:45:04.339Z,61.20
2022-10-31T17:47:36.419Z,61.80
2022-10-31T17:50:06.267Z,58.80
2022-10-31T17:52:39.170Z,60.90
2022-10-31T17:55:13.096Z,58.30
2022-10-31T17:57:45.993Z,60.00
2022-10-31T18:00:38.035Z,58.40
2022-10-31T18:03:09.853Z,54.70
2022-10-31T18:05:43.389Z,58.40
2022-10-31T18:08:12.808Z,61.00
2022-10-31T18:11:01.016Z,59.20
2022-10-31T18:13:35.176Z,57.70
2022-10-31T18:16:20.203Z,58.60
2022-10-31T18:19:57.115Z,56.10
2022-10-31T18:22:30.517Z,57.60
2022-10-31T18:25:04.556Z,60.60
2022-10-31T18:27:48.109Z,57.00
2022-10-31T18:30:20.846Z,57.40
2022-10-31T18:32:58.888Z,55.00
2022-10-31T18:35:42.394Z,56.20
2022-10-31T18:38:22.953Z,56.70
2022-10-31T18:40:54.378Z,52.20
2022-10-31T18:43:37.428Z,53.10
2022-10-31T18:46:14.429Z,58.80
2022-10-31T18:48:48.664Z,52.50
2022-10-31T18:51:21.962Z,54.70
2022-10-31T18:53:58.383Z,55.50
2022-10-31T18:56:32.744Z,54.10
2022-10-31T18:59:07.754Z,53.70
2022-10-31T19:01:37.415Z,56.20
2022-10-31T19:04:11.384Z,57.00
2022-10-31T19:06:41.991Z,46.80
2022-10-31T19:09:41.835Z,51.00
2022-10-31T19:12:12.971Z,50.10
2022-10-31T19:15:00.233Z,45.20
2022-10-31T19:17:51.326Z,46.20
2022-10-31T19:20:21.592Z,41.90
2022-10-31T19:22:51.630Z,43.20
2022-10-31T19:28:02.103Z,43.60
2022-10-31T19:30:36.680Z,42.30
2022-10-31T19:33:19.162Z,43.90
2022-10-31T19:35:59.340Z,40.60
2022-10-31T19:38:37.521Z,45.30
2022-10-31T19:41:42.326Z,39.60
2022-10-31T19:44:23.486Z,39.80
2022-10-31T19:46:56.479Z,43.30
2022-10-31T19:49:28.168Z,41.80
2022-10-31T19:52:10.275Z,35.70
2022-10-31T19:54:55.447Z,40.30
2022-10-31T19:58:00.779Z,37.80
2022-10-31T20:00:31.277Z,38.30
2022-10-31T20:03:15.173Z,43.40
2022-10-31T20:06:07.095Z,39.40
2022-10-31T20:08:59.198Z,60.20
2022-10-31T20:11:43.543Z,56.20
2022-10-31T20:14:24.922Z,48.10
2022-10-31T20:16:59.514Z,41.20
2022-10-31T20:19:35.424Z,44.50
2022-10-31T20:22:15.213Z,45.60
2022-10-31T20:24:47.249Z,46.50
2022-10-31T20:27:17.400Z,44.40
2022-10-31T20:29:54.019Z,40.70
2022-10-31T20:32:49.803Z,42.60
2022-10-31T20:35:26.346Z,41.60
2022-10-31T20:37:58.747Z,46.10
2022-10-31T20:40:28.248Z,45.10
2022-10-31T20:43:00.118Z,41.90
2022-10-31T20:45:33.977Z,42.20
2022-10-31T20:48:12.241Z,42.00
2022-10-31T20:50:47.657Z,41.60
2022-10-31T20:53:37.686Z,40.10
2022-10-31T20:56:16.325Z,40.80
2022-10-31T20:58:49.420Z,44.00
2022-10-31T21:01:25.135Z,45.10
2022-10-31T21:04:10.831Z,40.20
2022-10-31T21:06:49.885Z,44.60
2022-10-31T21:09:21.272Z,46.40
2022-10-31T21:11:50.933Z,49.00
2022-10-31T21:14:28.111Z,49.80
2022-10-31T21:17:09.621Z,44.00
2022-10-31T21:20:03.262Z,46.70
2022-10-31T21:22:36.178Z,47.50
2022-10-31T21:25:15.155Z,50.40
2022-10-31T21:27:58.235Z,45.20
2022-10-31T21:30:28.953Z,51.30
2022-10-31T21:33:05.901Z,42.80
2022-10-31T21:35:45.265Z,45.80
2022-10-31T21:38:35.714Z,44.90
2022-10-31T21:41:09.967Z,50.00
2022-10-31T21:43:41.014Z,46.30
2022-10-31T21:46:17.682Z,46.00
2022-10-31T21:48:52.905Z,53.60
2022-10-31T21:51:34.506Z,57.70
2022-10-31T21:54:26.236Z,50.10
2022-10-31T21:56:56.965Z,52.50
2022-10-31T21:59:48.843Z,50.80
2022-10-31T22:02:24.321Z,50.60
2022-10-31T22:05:05.758Z,54.60
2022-10-31T22:07:44.435Z,53.00
2022-10-31T22:10:16.860Z,44.80
2022-10-31T22:13:06.946Z,48.20
2022-10-31T22:15:40.958Z,46.70
2022-10-31T22:18:30.697Z,42.80
2022-10-31T22:21:11.555Z,49.10
2022-10-31T22:23:41.436Z,46.50
2022-10-31T22:26:26.322Z,43.10
2022-10-31T22:28:59.988Z,41.50
2022-10-31T22:31:40.680Z,41.90
2022-10-31T22:36:40.686Z,47.20
2022-10-31T22:39:13.431Z,41.80
2022-10-31T22:41:43.175Z,42.50
2022-10-31T22:44:15.672Z,38.10
2022-10-31T22:46:45.060Z,41.90
2022-10-31T22:49:24.707Z,43.10
2022-10-31T22:52:00.288Z,42.10
2022-10-31T22:54:38.060Z,42.30
2022-10-31T22:57:07.138Z,38.60
2022-10-31T22:59:38.964Z,37.50
2022-10-31T23:02:08.619Z,38.00
2022-10-31T23:04:40.592Z,40.60
2022-10-31T23:07:12.394Z,39.40
2022-10-31T23:09:43.455Z,39.30
2022-10-31T23:12:31.176Z,40.20
2022-10-31T23:15:06.591Z,44.20
2022-10-31T23:17:35.851Z,42.30
2022-10-31T23:20:07.522Z,37.20
2022-10-31T23:22:36.878Z,35.50
2022-10-31T23:25:06.715Z,36.10
2022-10-31T23:27:45.038Z,33.60
2022-10-31T23:30:18.830Z,35.50
2022-10-31T23:32:49.614Z,35.50
2022-10-31T23:35:21.577Z,33.90
2022-10-31T23:37:50.412Z,34.70
2022-10-31T23:40:26.961Z,32.60
2022-10-31T23:42:59.107Z,35.90
2022-10-31T23:45:29.298Z,31.60
2022-10-31T23:48:00.925Z,33.20
2022-10-31T23:50:31.025Z,36.50
2022-10-31T23:53:02.763Z,33.30
2022-10-31T23:55:37.917Z,33.00
2022-10-31T23:58:18.573Z,31.70
